createdAt,value
2023-05-10T00:01:28.663Z,58.45
2023-05-10T00:03:56.317Z,58.86
2023-05-10T00:06:24.026Z,58.78
2023-05-10T00:08:51.637Z,58.67
2023-05-10T00:11:20.912Z,58.98
2023-05-10T00:13:49.828Z,59.48
2023-05-10T00:16:17.534Z,59.49
2023-05-10T00:18:45.162Z,59.49
2023-05-10T00:21:12.705Z,59.92
2023-05-10T00:23:40.233Z,60.75
2023-05-10T00:26:07.869Z,60.82
2023-05-10T00:28:35.410Z,61.34
2023-05-10T00:31:03.081Z,62.13
2023-05-10T00:33:30.669Z,62.02
2023-05-10T00:35:58.183Z,62.26
2023-05-10T00:38:25.771Z,62.39
2023-05-10T00:40:53.325Z,62.63
2023-05-10T00:43:20.957Z,63.14
2023-05-10T00:45:48.828Z,63.17
2023-05-10T00:48:16.587Z,63.63
2023-05-10T00:50:44.245Z,63.96
2023-05-10T00:53:11.800Z,64.04
2023-05-10T00:55:39.518Z,64.52
2023-05-10T00:58:07.279Z,64.62
2023-05-10T01:00:36.447Z,65.18
2023-05-10T01:03:04.282Z,65.48
2023-05-10T01:05:31.878Z,66.08
2023-05-10T01:07:59.403Z,66.19
2023-05-10T01:10:27.232Z,66.34
2023-05-10T01:12:55.721Z,66.60
2023-05-10T01:15:23.571Z,67.15
2023-05-10T01:17:52.465Z,67.98
2023-05-10T01:20:20.244Z,67.97
2023-05-10T01:23:06.541Z,67.72
2023-05-10T01:26:14.684Z,68.02
2023-05-10T01:28:51.231Z,68.15
2023-05-10T01:31:37.492Z,68.60
2023-05-10T01:34:11.955Z,68.74
2023-05-10T01:36:48.102Z,69.04
2023-05-10T01:39:26.848Z,69.44
2023-05-10T01:42:09.180Z,69.50
2023-05-10T01:44:55.559Z,69.81
2023-05-10T01:47:38.360Z,69.85
2023-05-10T01:50:10.913Z,70.15
2023-05-10T01:52:43.096Z,70.31
2023-05-10T01:55:15.185Z,70.46
2023-05-10T01:57:45.609Z,70.74
2023-05-10T02:00:15.629Z,70.60
2023-05-10T02:02:47.292Z,70.83
2023-05-10T02:05:17.290Z,71.14
2023-05-10T02:07:46.143Z,71.20
2023-05-10T02:10:15.460Z,71.26
2023-05-10T02:12:48.390Z,71.34
2023-05-10T02:15:25.734Z,71.44
2023-05-10T02:17:56.145Z,71.43
2023-05-10T02:20:25.440Z,71.65
2023-05-10T02:22:56.819Z,71.79
2023-05-10T02:25:25.659Z,72.01
2023-05-10T02:27:56.791Z,72.29
2023-05-10T02:30:24.898Z,72.47
2023-05-10T02:32:53.102Z,72.71
2023-05-10T02:35:22.346Z,72.64
2023-05-10T02:37:51.223Z,72.69
2023-05-10T02:40:20.638Z,72.83
2023-05-10T02:42:50.011Z,73.08
2023-05-10T02:45:21.357Z,73.31
2023-05-10T02:47:49.489Z,73.10
2023-05-10T02:50:19.577Z,73.30
2023-05-10T02:53:01.614Z,73.18
2023-05-10T02:55:34.028Z,73.38
2023-05-10T02:58:02.884Z,73.52
2023-05-10T03:00:30.814Z,73.87
2023-05-10T03:02:58.539Z,73.90
2023-05-10T03:05:30.127Z,74.11
2023-05-10T03:07:57.779Z,73.61
2023-05-10T03:10:30.230Z,73.84
2023-05-10T03:13:21.928Z,73.95
2023-05-10T03:16:12.910Z,74.34
2023-05-10T03:18:45.519Z,73.89
2023-05-10T03:21:15.279Z,74.20
2023-05-10T03:24:00.126Z,74.60
2023-05-10T03:26:29.147Z,74.33
2023-05-10T03:28:58.539Z,74.15
2023-05-10T03:31:26.545Z,73.80
2023-05-10T03:33:54.169Z,74.02
2023-05-10T03:36:21.881Z,73.97
2023-05-10T03:38:49.382Z,73.91
2023-05-10T03:41:16.911Z,73.66
2023-05-10T03:43:44.441Z,73.64
2023-05-10T03:46:12.066Z,73.70
2023-05-10T03:48:39.706Z,73.52
2023-05-10T03:51:07.273Z,73.50
2023-05-10T03:53:34.929Z,73.45
2023-05-10T03:56:02.484Z,73.37
2023-05-10T03:58:30.065Z,73.55
2023-05-10T04:00:57.587Z,73.20
2023-05-10T04:03:25.238Z,73.31
2023-05-10T04:06:03.129Z,72.95
2023-05-10T04:08:31.106Z,72.81
2023-05-10T04:11:12.661Z,72.64
2023-05-10T04:13:40.200Z,72.35
2023-05-10T04:16:07.811Z,72.34
2023-05-10T04:18:35.797Z,72.40
2023-05-10T04:21:03.391Z,72.26
2023-05-10T04:23:30.946Z,72.30
2023-05-10T04:26:01.949Z,72.16
2023-05-10T04:28:29.500Z,71.98
2023-05-10T04:31:08.985Z,72.17
2023-05-10T04:33:37.302Z,72.21
2023-05-10T04:36:05.278Z,71.80
2023-05-10T04:38:32.865Z,71.77
2023-05-10T04:41:11.226Z,71.57
2023-05-10T04:43:39.531Z,71.08
2023-05-10T04:46:07.270Z,70.79
2023-05-10T04:48:34.894Z,70.21
2023-05-10T04:51:02.480Z,70.66
2023-05-10T04:53:30.094Z,70.76
2023-05-10T04:55:57.653Z,69.76
2023-05-10T04:58:25.213Z,69.37
2023-05-10T05:00:52.791Z,68.59
2023-05-10T05:03:20.562Z,68.06
2023-05-10T05:05:48.170Z,67.66
2023-05-10T05:08:15.725Z,66.21
2023-05-10T05:10:43.286Z,65.64
2023-05-10T05:13:10.914Z,65.27
2023-05-10T05:15:38.476Z,64.53
2023-05-10T05:18:06.351Z,64.76
2023-05-10T05:20:34.381Z,64.31
2023-05-10T05:23:02.300Z,63.74
2023-05-10T05:25:29.811Z,62.89
2023-05-10T05:27:57.375Z,62.89
2023-05-10T05:30:24.879Z,62.86
2023-05-10T05:32:52.469Z,62.26
2023-05-10T05:35:20.066Z,61.37
2023-05-10T05:37:47.596Z,61.16
2023-05-10T05:40:15.328Z,60.89
2023-05-10T05:42:42.861Z,60.62
2023-05-10T05:45:10.810Z,60.01
2023-05-10T05:47:38.334Z,59.65
2023-05-10T05:50:06.738Z,59.13
2023-05-10T05:52:34.602Z,58.93
2023-05-10T05:55:05.459Z,58.42
2023-05-10T05:57:33.056Z,57.87
2023-05-10T06:00:00.619Z,58.06
2023-05-10T06:02:28.180Z,57.07
2023-05-10T06:04:55.903Z,57.28
2023-05-10T06:07:23.400Z,55.96
2023-05-10T06:09:50.923Z,55.67
2023-05-10T06:12:18.513Z,55.24
2023-05-10T06:14:46.085Z,55.12
2023-05-10T06:17:13.610Z,54.38
2023-05-10T06:19:41.196Z,54.39
2023-05-10T06:22:08.853Z,53.97
2023-05-10T06:24:36.376Z,53.42
2023-05-10T06:27:04.082Z,53.39
2023-05-10T06:29:31.629Z,53.06
2023-05-10T06:31:59.190Z,52.56
2023-05-10T06:34:26.790Z,51.69
2023-05-10T06:36:54.457Z,50.82
2023-05-10T06:39:22.127Z,50.67
2023-05-10T06:41:49.673Z,50.77
2023-05-10T06:44:17.213Z,50.21
2023-05-10T06:46:44.870Z,49.12
2023-05-10T06:49:12.466Z,48.21
2023-05-10T06:51:40.035Z,48.56
2023-05-10T06:54:07.609Z,46.23
2023-05-10T06:56:35.135Z,46.70
2023-05-10T06:59:02.736Z,46.39
2023-05-10T07:01:30.388Z,45.63
2023-05-10T07:03:57.931Z,45.38
2023-05-10T07:06:33.442Z,44.82
2023-05-10T07:09:01.829Z,45.37
2023-05-10T07:11:29.508Z,45.28
2023-05-10T07:13:57.047Z,43.83
2023-05-10T07:16:24.717Z,43.26
2023-05-10T07:18:52.354Z,43.08
2023-05-10T07:21:20.015Z,43.02
2023-05-10T07:23:47.754Z,42.61
2023-05-10T07:26:15.413Z,42.05
2023-05-10T07:28:43.172Z,42.34
2023-05-10T07:31:10.744Z,44.06
2023-05-10T07:33:38.501Z,42.54
2023-05-10T07:36:06.189Z,41.76
2023-05-10T07:38:33.716Z,41.39
2023-05-10T07:41:01.290Z,41.12
2023-05-10T07:43:29.002Z,42.69
2023-05-10T07:45:56.629Z,41.04
2023-05-10T07:48:24.249Z,40.51
2023-05-10T07:50:51.827Z,41.66
2023-05-10T07:53:19.382Z,41.51
2023-05-10T07:55:52.023Z,40.98
2023-05-10T07:58:21.883Z,40.00
2023-05-10T08:00:49.434Z,38.62
2023-05-10T08:03:17.171Z,38.94
2023-05-10T08:05:44.791Z,38.41
2023-05-10T08:08:12.324Z,37.28
2023-05-10T08:10:39.983Z,37.96
2023-05-10T08:13:07.537Z,38.03
2023-05-10T08:15:35.076Z,37.34
2023-05-10T08:18:02.636Z,36.83
2023-05-10T08:20:30.323Z,36.23
2023-05-10T08:22:57.870Z,37.30
2023-05-10T08:25:25.391Z,36.90
2023-05-10T08:27:52.972Z,36.24
2023-05-10T08:30:20.630Z,37.02
2023-05-10T08:32:48.201Z,36.00
2023-05-10T08:35:17.137Z,35.65
2023-05-10T08:37:44.960Z,35.62
2023-05-10T08:40:12.962Z,34.79
2023-05-10T08:42:44.017Z,35.13
2023-05-10T08:45:12.818Z,34.87
2023-05-10T08:47:40.667Z,34.31
2023-05-10T08:50:08.738Z,34.05
2023-05-10T08:52:39.472Z,34.32
2023-05-10T08:55:07.295Z,33.76
2023-05-10T08:57:34.944Z,33.59
2023-05-10T09:00:02.685Z,33.82
2023-05-10T09:02:30.940Z,34.60
2023-05-10T09:04:58.604Z,35.16
2023-05-10T09:07:26.635Z,35.10
2023-05-10T09:09:55.247Z,34.30
2023-05-10T09:12:23.642Z,33.14
2023-05-10T09:14:53.580Z,33.02
2023-05-10T09:17:24.525Z,33.78
2023-05-10T09:19:59.469Z,34.10
2023-05-10T09:22:27.718Z,33.90
2023-05-10T09:25:11.591Z,33.57
2023-05-10T09:27:41.734Z,33.49
2023-05-10T09:30:10.070Z,33.20
2023-05-10T09:32:43.154Z,32.91
2023-05-10T09:35:15.332Z,32.09
2023-05-10T09:37:48.340Z,32.82
2023-05-10T09:40:23.515Z,31.46
2023-05-10T09:43:14.358Z,32.47
2023-05-10T09:45:43.153Z,32.01
2023-05-10T09:48:10.774Z,30.15
2023-05-10T09:50:38.362Z,29.88
2023-05-10T09:53:05.871Z,30.22
2023-05-10T09:55:40.620Z,28.92
2023-05-10T09:58:08.768Z,26.61
2023-05-10T10:00:42.961Z,24.70
2023-05-10T10:03:18.447Z,24.77
2023-05-10T10:05:46.836Z,22.84
2023-05-10T10:08:15.845Z,21.42
2023-05-10T10:10:43.926Z,21.61
2023-05-10T10:13:11.556Z,20.78
2023-05-10T10:15:40.139Z,19.04
2023-05-10T10:18:08.936Z,19.08
2023-05-10T10:20:38.512Z,17.61
2023-05-10T10:23:06.010Z,16.64
2023-05-10T10:25:34.041Z,17.06
2023-05-10T10:28:26.197Z,16.78
2023-05-10T10:31:01.936Z,15.88
2023-05-10T10:33:48.439Z,15.30
2023-05-10T10:36:16.506Z,15.67
2023-05-10T10:38:46.803Z,14.16
2023-05-10T10:41:29.389Z,14.35
2023-05-10T10:44:25.811Z,14.74
2023-05-10T10:47:11.626Z,14.51
2023-05-10T10:49:43.579Z,14.69
2023-05-10T10:52:37.924Z,13.60
2023-05-10T10:55:11.082Z,13.61
2023-05-10T10:57:41.622Z,14.51
2023-05-10T11:00:29.956Z,14.25
2023-05-10T11:02:57.482Z,13.71
2023-05-10T11:05:34.325Z,13.13
2023-05-10T11:08:28.057Z,12.04
2023-05-10T11:11:01.457Z,12.10
2023-05-10T11:13:40.991Z,11.96
2023-05-10T11:16:25.788Z,11.52
2023-05-10T11:19:11.596Z,12.08
2023-05-10T11:22:05.624Z,12.00
2023-05-10T11:24:34.554Z,11.81
2023-05-10T11:27:02.849Z,13.07
2023-05-10T11:29:30.412Z,13.69
2023-05-10T11:31:59.752Z,12.81
2023-05-10T11:34:31.536Z,13.91
2023-05-10T11:36:59.338Z,13.66
2023-05-10T11:39:32.062Z,12.49
2023-05-10T11:42:00.311Z,11.11
2023-05-10T11:44:32.132Z,11.53
2023-05-10T11:47:01.453Z,11.16
2023-05-10T11:49:29.185Z,11.10
2023-05-10T11:52:07.339Z,10.94
2023-05-10T11:54:35.074Z,10.24
2023-05-10T11:57:02.726Z,10.19
2023-05-10T11:59:30.384Z,10.80
2023-05-10T12:01:58.133Z,9.22
2023-05-10T12:04:27.005Z,9.00
2023-05-10T12:06:54.743Z,9.49
2023-05-10T12:09:35.462Z,9.74
2023-05-10T12:12:07.997Z,9.04
2023-05-10T12:14:36.450Z,10.27
2023-05-10T12:17:07.153Z,11.47
2023-05-10T12:19:40.821Z,12.73
2023-05-10T12:22:08.426Z,13.66
2023-05-10T12:24:37.347Z,13.11
2023-05-10T12:27:09.626Z,14.03
2023-05-10T12:29:37.534Z,14.19
2023-05-10T12:32:07.930Z,13.16
2023-05-10T12:34:36.254Z,12.65
2023-05-10T12:37:04.745Z,11.99
2023-05-10T12:39:42.681Z,10.22
2023-05-10T12:42:10.916Z,9.04
2023-05-10T12:44:38.681Z,9.05
2023-05-10T12:47:06.267Z,8.67
2023-05-10T12:49:33.951Z,7.52
2023-05-10T12:52:01.480Z,7.63
2023-05-10T12:54:29.200Z,8.27
2023-05-10T12:56:59.961Z,8.44
2023-05-10T12:59:27.606Z,7.51
2023-05-10T13:01:55.195Z,7.21
2023-05-10T13:04:22.955Z,7.04
2023-05-10T13:06:50.571Z,6.65
2023-05-10T13:09:18.134Z,6.82
2023-05-10T13:11:45.818Z,7.30
2023-05-10T13:14:13.482Z,7.17
2023-05-10T13:16:43.939Z,7.64
2023-05-10T13:19:11.675Z,6.87
2023-05-10T13:21:39.433Z,6.75
2023-05-10T13:24:07.358Z,6.63
2023-05-10T13:26:35.183Z,6.69
2023-05-10T13:29:06.153Z,6.20
2023-05-10T13:31:34.737Z,6.89
2023-05-10T13:34:03.125Z,7.59
2023-05-10T13:36:30.808Z,7.38
2023-05-10T13:38:58.404Z,6.89
2023-05-10T13:41:26.046Z,6.96
2023-05-10T13:43:56.033Z,6.66
2023-05-10T13:46:26.717Z,6.58
2023-05-10T13:48:54.343Z,6.75
2023-05-10T13:51:22.290Z,7.38
2023-05-10T13:53:49.904Z,6.98
2023-05-10T13:56:17.554Z,7.83
2023-05-10T13:58:45.130Z,7.30
2023-05-10T14:01:12.797Z,6.82
2023-05-10T14:03:40.699Z,6.72
2023-05-10T14:06:08.842Z,7.50
2023-05-10T14:08:36.527Z,6.85
2023-05-10T14:11:07.744Z,6.93
2023-05-10T14:13:35.410Z,7.85
2023-05-10T14:16:03.044Z,9.26
2023-05-10T14:18:30.675Z,10.44
2023-05-10T14:20:58.249Z,11.87
2023-05-10T14:23:25.892Z,12.04
2023-05-10T14:25:53.600Z,11.90
2023-05-10T14:28:21.470Z,10.92
2023-05-10T14:30:49.243Z,10.18
2023-05-10T14:33:17.863Z,10.41
2023-05-10T14:35:45.655Z,11.33
2023-05-10T14:38:13.753Z,12.31
2023-05-10T14:40:41.844Z,13.02
2023-05-10T14:43:10.532Z,12.58
2023-05-10T14:45:38.306Z,11.24
2023-05-10T14:48:06.209Z,10.97
2023-05-10T14:50:36.992Z,11.53
2023-05-10T14:53:05.161Z,12.48
2023-05-10T14:55:32.769Z,12.19
2023-05-10T14:58:00.546Z,11.23
2023-05-10T15:00:30.088Z,11.11
2023-05-10T15:02:58.504Z,9.40
2023-05-10T15:05:26.728Z,9.50
2023-05-10T15:07:54.842Z,8.96
2023-05-10T15:10:22.718Z,8.75
2023-05-10T15:12:51.261Z,8.31
2023-05-10T15:15:19.031Z,8.81
2023-05-10T15:17:46.813Z,9.49
2023-05-10T15:20:14.558Z,9.57
2023-05-10T15:22:42.189Z,9.04
2023-05-10T15:25:12.756Z,8.94
2023-05-10T15:27:40.350Z,9.78
2023-05-10T15:30:08.759Z,11.54
2023-05-10T15:32:38.554Z,13.36
2023-05-10T15:35:09.600Z,14.64
2023-05-10T15:37:38.657Z,16.06
2023-05-10T15:40:07.039Z,17.22
2023-05-10T15:42:34.678Z,17.96
2023-05-10T15:45:02.305Z,17.77
2023-05-10T15:47:30.975Z,18.14
2023-05-10T15:49:58.613Z,18.64
2023-05-10T15:52:26.278Z,19.09
2023-05-10T15:54:53.949Z,18.37
2023-05-10T15:57:21.812Z,16.55
2023-05-10T15:59:49.690Z,15.79
2023-05-10T16:02:17.261Z,14.21
2023-05-10T16:04:45.213Z,13.37
2023-05-10T16:07:12.842Z,12.63
2023-05-10T16:09:40.521Z,12.67
2023-05-10T16:12:08.440Z,12.22
2023-05-10T16:14:36.062Z,12.75
2023-05-10T16:17:06.347Z,13.72
2023-05-10T16:19:34.063Z,14.38
2023-05-10T16:22:01.965Z,15.97
2023-05-10T16:24:30.131Z,17.15
2023-05-10T16:26:57.740Z,17.77
2023-05-10T16:29:25.370Z,18.45
2023-05-10T16:31:53.183Z,17.84
2023-05-10T16:34:20.767Z,18.52
2023-05-10T16:36:48.341Z,19.07
2023-05-10T16:39:15.953Z,18.98
2023-05-10T16:41:43.561Z,18.70
2023-05-10T16:44:11.199Z,19.04
2023-05-10T16:46:39.029Z,19.28
2023-05-10T16:49:06.840Z,19.54
2023-05-10T16:51:34.464Z,19.83
2023-05-10T16:54:02.123Z,20.46
2023-05-10T16:56:29.749Z,20.99
2023-05-10T16:58:57.376Z,21.85
2023-05-10T17:01:26.928Z,22.77
2023-05-10T17:03:54.901Z,24.06
2023-05-10T17:06:22.744Z,24.52
2023-05-10T17:08:50.481Z,25.56
2023-05-10T17:11:18.124Z,25.83
2023-05-10T17:13:45.765Z,25.87
2023-05-10T17:16:13.552Z,25.96
2023-05-10T17:18:44.494Z,27.04
2023-05-10T17:21:12.216Z,27.52
2023-05-10T17:23:39.839Z,28.00
2023-05-10T17:26:08.879Z,28.29
2023-05-10T17:28:36.553Z,29.05
2023-05-10T17:31:04.328Z,29.52
2023-05-10T17:33:31.941Z,30.39
2023-05-10T17:36:02.197Z,30.87
2023-05-10T17:38:29.854Z,31.60
2023-05-10T17:40:57.486Z,32.19
2023-05-10T17:43:25.143Z,32.90
2023-05-10T17:45:52.827Z,33.24
2023-05-10T17:48:20.555Z,33.71
2023-05-10T17:50:50.422Z,33.67
2023-05-10T17:53:18.254Z,34.32
2023-05-10T17:55:45.884Z,34.79
2023-05-10T17:58:13.713Z,34.71
2023-05-10T18:00:41.332Z,35.19
2023-05-10T18:03:09.115Z,35.46
2023-05-10T18:05:38.681Z,35.72
2023-05-10T18:08:06.612Z,36.01
2023-05-10T18:10:34.313Z,36.39
2023-05-10T18:13:01.946Z,36.62
2023-05-10T18:15:29.709Z,36.71
2023-05-10T18:17:57.419Z,37.18
2023-05-10T18:20:25.032Z,37.44
2023-05-10T18:22:52.752Z,37.61
2023-05-10T18:25:20.616Z,38.26
2023-05-10T18:27:48.426Z,38.50
2023-05-10T18:30:16.248Z,38.99
2023-05-10T18:32:44.732Z,39.45
2023-05-10T18:35:12.431Z,39.99
2023-05-10T18:37:40.474Z,39.95
2023-05-10T18:40:08.607Z,40.14
2023-05-10T18:42:36.574Z,40.27
2023-05-10T18:45:04.640Z,40.76
2023-05-10T18:47:32.275Z,40.71
2023-05-10T18:50:00.196Z,40.79
2023-05-10T18:52:27.846Z,41.22
2023-05-10T18:54:55.480Z,41.40
2023-05-10T18:57:24.709Z,41.71
2023-05-10T18:59:52.382Z,41.80
2023-05-10T19:02:20.080Z,42.56
2023-05-10T19:04:47.946Z,42.48
2023-05-10T19:07:15.698Z,42.57
2023-05-10T19:09:43.348Z,42.50
2023-05-10T19:12:11.094Z,42.95
2023-05-10T19:14:38.754Z,43.12
2023-05-10T19:17:06.459Z,43.06
2023-05-10T19:19:34.179Z,43.10
2023-05-10T19:22:04.027Z,43.37
2023-05-10T19:24:36.265Z,43.47
2023-05-10T19:27:04.047Z,43.20
2023-05-10T19:29:31.733Z,43.45
2023-05-10T19:32:01.832Z,43.74
2023-05-10T19:34:30.936Z,43.35
2023-05-10T19:36:58.491Z,43.82
2023-05-10T19:39:26.039Z,43.60
2023-05-10T19:41:53.596Z,43.82
2023-05-10T19:44:21.305Z,43.97
2023-05-10T19:46:48.950Z,43.87
2023-05-10T19:49:17.178Z,44.10
2023-05-10T19:51:44.723Z,44.02
2023-05-10T19:54:12.313Z,44.43
2023-05-10T19:56:40.203Z,44.15
2023-05-10T19:59:07.767Z,44.12
2023-05-10T20:01:35.505Z,44.06
2023-05-10T20:04:03.283Z,44.50
2023-05-10T20:06:30.840Z,44.50
2023-05-10T20:08:58.414Z,44.73
2023-05-10T20:11:26.024Z,44.57
2023-05-10T20:13:53.579Z,44.75
2023-05-10T20:16:21.375Z,44.70
2023-05-10T20:18:48.927Z,45.00
2023-05-10T20:21:16.519Z,44.91
2023-05-10T20:23:44.075Z,45.03
2023-05-10T20:26:11.694Z,44.98
2023-05-10T20:28:39.501Z,44.89
2023-05-10T20:31:07.194Z,45.21
2023-05-10T20:33:34.917Z,45.35
2023-05-10T20:36:02.534Z,45.27
2023-05-10T20:38:30.091Z,45.41
2023-05-10T20:40:57.752Z,45.46
2023-05-10T20:43:25.341Z,45.79
2023-05-10T20:45:53.081Z,45.81
2023-05-10T20:48:20.918Z,46.02
2023-05-10T20:50:48.561Z,46.06
2023-05-10T20:53:16.227Z,46.39
2023-05-10T20:55:45.701Z,46.58
2023-05-10T20:58:13.224Z,46.55
2023-05-10T21:00:40.816Z,46.93
2023-05-10T21:03:08.435Z,46.96
2023-05-10T21:05:36.129Z,47.31
2023-05-10T21:08:03.737Z,46.84
2023-05-10T21:10:31.411Z,47.19
2023-05-10T21:12:58.984Z,47.39
2023-05-10T21:15:26.501Z,47.63
2023-05-10T21:17:54.465Z,47.93
2023-05-10T21:20:22.286Z,48.26
2023-05-10T21:22:49.882Z,48.22
2023-05-10T21:25:17.449Z,48.42
2023-05-10T21:27:44.995Z,48.94
2023-05-10T21:30:12.743Z,49.15
2023-05-10T21:32:40.328Z,49.75
2023-05-10T21:35:08.549Z,50.19
2023-05-10T21:37:36.100Z,50.55
2023-05-10T21:40:03.928Z,51.22
2023-05-10T21:42:32.686Z,51.59
2023-05-10T21:45:01.365Z,51.39
2023-05-10T21:47:29.018Z,52.62
2023-05-10T21:49:56.667Z,52.15
2023-05-10T21:52:24.286Z,51.79
2023-05-10T21:54:51.879Z,52.12
2023-05-10T21:57:19.434Z,54.38
2023-05-10T21:59:47.019Z,54.83
2023-05-10T22:02:14.636Z,54.63
2023-05-10T22:04:42.312Z,53.88
2023-05-10T22:07:09.882Z,54.00
2023-05-10T22:09:37.417Z,54.63
2023-05-10T22:12:07.104Z,55.20
2023-05-10T22:14:35.029Z,55.55
2023-05-10T22:17:02.733Z,56.77
2023-05-10T22:19:30.337Z,56.82
2023-05-10T22:21:57.897Z,57.50
2023-05-10T22:24:25.447Z,57.81
2023-05-10T22:26:55.734Z,57.74
2023-05-10T22:29:24.216Z,58.00
2023-05-10T22:31:51.758Z,58.85
2023-05-10T22:34:19.278Z,58.67
2023-05-10T22:36:46.996Z,58.35
2023-05-10T22:39:14.493Z,58.68
2023-05-10T22:41:42.049Z,58.61
2023-05-10T22:44:09.548Z,58.75
2023-05-10T22:46:37.139Z,58.95
2023-05-10T22:49:04.722Z,59.98
2023-05-10T22:51:32.260Z,59.85
2023-05-10T22:53:59.774Z,59.99
2023-05-10T22:56:27.588Z,60.57
2023-05-10T22:58:57.058Z,60.26
2023-05-10T23:01:24.689Z,60.29
2023-05-10T23:03:52.268Z,60.59
2023-05-10T23:06:19.815Z,61.10
2023-05-10T23:08:47.302Z,61.85
2023-05-10T23:11:14.834Z,63.33
2023-05-10T23:13:42.415Z,62.79
2023-05-10T23:16:09.942Z,62.33
2023-05-10T23:18:37.586Z,62.71
2023-05-10T23:21:05.520Z,62.49
2023-05-10T23:23:33.131Z,62.62
2023-05-10T23:26:01.378Z,62.95
2023-05-10T23:28:28.915Z,63.02
2023-05-10T23:30:59.783Z,62.97
2023-05-10T23:33:27.339Z,63.07
2023-05-10T23:35:54.865Z,63.19
2023-05-10T23:38:22.767Z,63.26
2023-05-10T23:40:50.702Z,63.34
2023-05-10T23:43:18.240Z,63.36
2023-05-10T23:45:57.076Z,63.41
2023-05-10T23:48:24.991Z,63.34
2023-05-10T23:50:52.976Z,63.08
2023-05-10T23:53:20.544Z,63.24
2023-05-10T23:55:48.071Z,63.52
2023-05-10T23:58:15.594Z,63.65
